Time;durP1;ratioP1;P1;durP2;ratioP2;P2;SDS_P1;SDS_P2;PMS_P1;PMS_P2;Temp;Humidity;BMP_temperature;BMP_pressure;BME280_temperature;BME280_humidity;BME280_pressure;Samples;Min_cycle;Max_cycle;Signal;HPM_P1;HPM_P2
2022/07/26 00:01:32;;;;;;;8.67;3.43;;;6.90;99.90;;;;;;5018157;28;20162;-75
2022/07/26 00:03:58;;;;;;;12.83;5.27;;;6.70;99.90;;;;;;5017758;28;20722;-75
2022/07/26 00:06:24;;;;;;;8.93;2.87;;;6.50;99.90;;;;;;5018156;28;20174;-76
2022/07/26 00:08:51;;;;;;;7.10;1.80;;;5.90;99.90;;;;;;5017746;28;20184;-76
2022/07/26 00:11:17;;;;;;;8.40;2.93;;;6.00;99.90;;;;;;5016875;28;20623;-74
2022/07/26 00:13:44;;;;;;;5.07;2.63;;;6.60;99.90;;;;;;5017795;28;20226;-75
2022/07/26 00:16:10;;;;;;;11.00;2.90;;;6.20;99.90;;;;;;5016697;28;20280;-75
2022/07/26 00:18:36;;;;;;;14.10;3.37;;;6.70;99.90;;;;;;5017566;28;20177;-76
2022/07/26 00:21:02;;;;;;;5.53;2.33;;;6.70;99.90;;;;;;5017858;28;20471;-75
2022/07/26 00:23:28;;;;;;;2.60;1.90;;;6.10;99.90;;;;;;5017894;28;20161;-76
2022/07/26 00:25:54;;;;;;;15.83;3.30;;;1.80;99.90;;;;;;5017661;28;20173;-74
2022/07/26 00:28:20;;;;;;;8.03;2.73;;;2.70;99.90;;;;;;5017674;28;20180;-75
2022/07/26 00:30:46;;;;;;;7.63;3.17;;;1.90;99.90;;;;;;5015945;28;20232;-75
2022/07/26 00:33:12;;;;;;;7.83;2.90;;;4.50;99.90;;;;;;5017371;28;20193;-75
2022/07/26 00:35:38;;;;;;;8.20;2.50;;;3.00;99.90;;;;;;5017426;28;20166;-76
2022/07/26 00:38:04;;;;;;;6.37;2.00;;;-0.70;99.90;;;;;;5017530;28;20216;-75
2022/07/26 00:40:30;;;;;;;8.60;2.97;;;0.20;99.90;;;;;;5017308;28;20176;-74
2022/07/26 00:42:56;;;;;;;10.07;2.27;;;14.40;99.90;;;;;;5017402;28;20196;-74
2022/07/26 00:45:22;;;;;;;6.17;3.07;;;14.50;99.90;;;;;;5017376;28;20612;-73
2022/07/26 00:47:47;;;;;;;9.27;3.70;;;14.40;99.90;;;;;;5016920;28;20194;-74
2022/07/26 00:50:16;;;;;;;13.70;3.27;;;14.70;99.90;;;;;;5017080;28;20265;-75
2022/07/26 00:52:43;;;;;;;4.80;2.27;;;14.60;99.90;;;;;;5017128;28;20263;-74
2022/07/26 00:55:10;;;;;;;7.20;2.13;;;14.40;99.90;;;;;;5017117;28;20178;-74
2022/07/26 00:57:37;;;;;;;9.30;2.53;;;14.40;99.90;;;;;;5016983;28;20170;-74
2022/07/26 01:00:09;;;;;;;8.43;3.37;;;14.50;99.90;;;;;;5018355;28;20166;-74
2022/07/26 01:02:35;;;;;;;5.53;3.40;;;14.50;99.90;;;;;;5022947;28;20169;-75
2022/07/26 01:05:00;;;;;;;7.07;3.17;;;14.60;99.90;;;;;;5022370;28;20526;-74
2022/07/26 01:07:27;;;;;;;6.13;2.30;;;14.40;99.90;;;;;;5018004;28;20249;-75
2022/07/26 01:09:53;;;;;;;11.60;3.70;;;15.30;99.90;;;;;;5016188;28;20188;-74
2022/07/26 01:12:19;;;;;;;18.53;3.87;;;17.50;99.90;;;;;;5017026;28;20205;-72
2022/07/26 01:14:45;;;;;;;7.50;2.23;;;17.60;99.90;;;;;;5016836;28;20272;-73
2022/07/26 01:17:12;;;;;;;9.50;2.80;;;17.60;99.90;;;;;;5016479;28;20177;-73
2022/07/26 01:19:39;;;;;;;12.93;3.90;;;17.70;99.90;;;;;;5015576;28;20465;-73
2022/07/26 01:22:05;;;;;;;9.03;4.13;;;17.90;99.90;;;;;;5015456;28;20626;-74
2022/07/26 01:24:30;;;;;;;7.90;2.87;;;17.70;99.90;;;;;;5016520;28;20173;-74
2022/07/26 01:26:56;;;;;;;10.50;3.70;;;17.70;99.90;;;;;;5016374;28;20580;-74
2022/07/26 01:29:23;;;;;;;14.90;3.60;;;17.70;99.90;;;;;;5016541;28;20173;-75
2022/07/26 01:31:49;;;;;;;11.37;2.80;;;17.50;99.90;;;;;;5014952;28;20299;-75
2022/07/26 01:34:15;;;;;;;8.83;3.27;;;17.50;99.90;;;;;;5016526;28;20174;-75
2022/07/26 01:36:41;;;;;;;10.80;3.87;;;17.40;99.90;;;;;;5016304;28;20177;-73
2022/07/26 01:39:07;;;;;;;7.63;3.30;;;17.40;99.90;;;;;;5016322;28;20173;-74
2022/07/26 01:41:34;;;;;;;11.83;3.27;;;17.40;99.90;;;;;;5014534;28;20184;-73
2022/07/26 01:43:59;;;;;;;12.87;4.33;;;17.40;99.90;;;;;;5016272;28;20208;-74
2022/07/26 01:46:25;;;;;;;5.43;2.80;;;17.40;99.90;;;;;;5016019;28;20253;-73
2022/07/26 01:48:51;;;;;;;8.47;2.63;;;17.40;99.90;;;;;;5016344;28;20247;-73
2022/07/26 01:51:17;;;;;;;10.03;2.87;;;17.40;99.90;;;;;;5016035;28;20204;-74
2022/07/26 01:53:44;;;;;;;10.13;2.53;;;17.40;99.90;;;;;;5016118;28;20628;-73
2022/07/26 01:56:13;;;;;;;11.67;4.10;;;17.60;99.90;;;;;;5016015;28;20233;-75
2022/07/26 01:58:40;;;;;;;4.77;2.50;;;17.50;99.90;;;;;;5016115;28;20173;-73
2022/07/26 02:01:07;;;;;;;6.63;2.97;;;17.20;99.90;;;;;;5016072;28;20178;-74
2022/07/26 02:03:33;;;;;;;11.80;3.97;;;17.30;99.90;;;;;;5016072;28;20197;-73
2022/07/26 02:05:59;;;;;;;8.83;2.97;;;17.20;99.90;;;;;;5016182;28;20185;-73
2022/07/26 02:08:25;;;;;;;11.47;4.20;;;17.20;99.90;;;;;;5016061;28;20483;-74
2022/07/26 02:11:00;;;;;;;10.83;2.70;;;17.10;99.90;;;;;;5014653;28;20518;-73
2022/07/26 02:13:39;;;;;;;8.90;3.07;;;17.10;99.90;;;;;;5015734;28;20161;-74
2022/07/26 02:16:08;;;;;;;12.43;2.90;;;17.10;99.90;;;;;;5015472;28;20189;-73
2022/07/26 02:18:35;;;;;;;5.87;2.50;;;17.10;99.90;;;;;;5015791;28;20181;-74
2022/07/26 02:21:01;;;;;;;13.20;3.07;;;17.10;99.90;;;;;;5015795;28;20276;-75
2022/07/26 02:23:27;;;;;;;9.83;3.33;;;17.10;99.90;;;;;;5015706;28;20248;-74
2022/07/26 02:25:54;;;;;;;11.80;3.20;;;17.20;99.90;;;;;;5015661;28;20453;-74
2022/07/26 02:28:20;;;;;;;18.20;4.37;;;17.30;99.90;;;;;;5015701;28;20183;-74
2022/07/26 02:30:46;;;;;;;9.87;3.53;;;17.20;99.90;;;;;;5015317;28;20165;-75
2022/07/26 02:33:13;;;;;;;7.27;3.40;;;16.80;99.90;;;;;;5015634;28;20158;-73
2022/07/26 02:35:39;;;;;;;10.10;3.00;;;16.40;99.90;;;;;;5015671;28;20264;-73
2022/07/26 02:38:07;;;;;;;19.83;4.13;;;-7.80;99.90;;;;;;5015461;28;20165;-75
2022/07/26 02:40:34;;;;;;;12.10;3.57;;;-8.50;99.90;;;;;;5015652;28;20169;-73
2022/07/26 02:43:00;;;;;;;13.53;4.40;;;-7.90;99.90;;;;;;5015490;28;20170;-75
2022/07/26 02:45:26;;;;;;;8.93;2.80;;;-8.10;99.90;;;;;;5015310;28;20209;-75
2022/07/26 02:47:54;;;;;;;10.00;3.73;;;-7.00;99.90;;;;;;5015403;28;20201;-74
2022/07/26 02:50:22;;;;;;;9.93;2.67;;;-7.20;99.90;;;;;;5014539;28;20174;-74
2022/07/26 02:52:48;;;;;;;12.43;4.57;;;-8.00;99.90;;;;;;5016138;28;20351;-75
2022/07/26 02:55:19;;;;;;;8.43;3.50;;;-10.80;99.90;;;;;;5019445;28;20170;-74
2022/07/26 02:57:45;;;;;;;13.27;5.03;;;-9.60;99.90;;;;;;5019295;28;20169;-74
2022/07/26 03:00:12;;;;;;;16.60;3.93;;;-9.70;99.90;;;;;;5018835;28;20599;-74
2022/07/26 03:02:39;;;;;;;12.90;3.30;;;-8.70;99.90;;;;;;5019247;28;20171;-73
2022/07/26 03:05:05;;;;;;;22.77;4.90;;;-9.50;99.90;;;;;;5019174;28;20165;-73
2022/07/26 03:07:32;;;;;;;14.60;3.63;;;-9.20;99.90;;;;;;5019141;28;20627;-73
2022/07/26 03:09:58;;;;;;;15.33;3.77;;;-8.90;99.90;;;;;;5018911;28;20162;-74
2022/07/26 03:12:24;;;;;;;10.63;4.33;;;-8.30;99.90;;;;;;5018880;28;20552;-73
2022/07/26 03:14:51;;;;;;;14.33;4.53;;;-7.40;99.90;;;;;;5018900;28;20256;-74
2022/07/26 03:17:17;;;;;;;12.20;3.67;;;-7.50;99.90;;;;;;5019014;28;20223;-74
2022/07/26 03:19:43;;;;;;;7.50;3.83;;;-8.00;99.90;;;;;;5018826;28;20169;-74
2022/07/26 03:22:09;;;;;;;11.13;4.30;;;-8.60;99.90;;;;;;5017799;28;20488;-74
2022/07/26 03:24:34;;;;;;;12.17;4.83;;;-8.60;99.90;;;;;;5018775;28;20236;-74
2022/07/26 03:27:00;;;;;;;11.57;3.80;;;-8.20;99.90;;;;;;5018624;28;20573;-74
2022/07/26 03:29:26;;;;;;;8.47;5.10;;;-8.20;99.90;;;;;;5018610;28;20203;-75
2022/07/26 03:31:51;;;;;;;16.70;5.97;;;-7.70;99.90;;;;;;5018435;28;20291;-74
2022/07/26 03:34:18;;;;;;;10.23;4.13;;;-7.80;99.90;;;;;;5018623;28;20269;-75
2022/07/26 03:36:44;;;;;;;13.77;4.37;;;-7.30;99.90;;;;;;5018717;28;20192;-74
2022/07/26 03:39:10;;;;;;;12.43;5.17;;;-7.90;99.90;;;;;;5017304;28;20205;-74
2022/07/26 03:41:35;;;;;;;14.60;5.83;;;-8.40;99.90;;;;;;5018362;28;20216;-74
2022/07/26 03:44:02;;;;;;;14.97;4.40;;;-12.30;99.90;;;;;;5018321;28;20181;-73
2022/07/26 03:46:27;;;;;;;19.97;4.27;;;-12.50;99.90;;;;;;5018726;28;20173;-75
2022/07/26 03:48:54;;;;;;;11.63;4.67;;;-13.10;99.90;;;;;;5018304;28;20452;-75
2022/07/26 03:51:19;;;;;;;16.57;4.67;;;-11.80;99.90;;;;;;5018284;28;20197;-75
2022/07/26 03:53:45;;;;;;;5.93;3.60;;;-11.10;99.90;;;;;;5018242;28;20215;-73
2022/07/26 03:58:58;;;;;;;11.73;4.90;;;-11.80;99.90;;;;;;5017981;28;20172;-74
2022/07/26 04:01:25;;;;;;;12.83;4.90;;;-12.50;99.90;;;;;;5018184;28;20174;-73
2022/07/26 04:03:51;;;;;;;15.47;4.10;;;-10.80;99.90;;;;;;5017768;28;20170;-75
2022/07/26 04:06:17;;;;;;;15.27;3.90;;;-9.50;99.90;;;;;;5017423;28;20479;-75
2022/07/26 04:08:43;;;;;;;16.67;4.63;;;-9.80;99.90;;;;;;5018013;28;20252;-74
2022/07/26 04:11:09;;;;;;;15.53;4.67;;;-12.60;99.90;;;;;;5016327;28;20351;-75
2022/07/26 04:13:35;;;;;;;15.07;4.53;;;-13.10;99.90;;;;;;5018035;28;20170;-74
2022/07/26 04:16:02;;;;;;;14.57;3.77;;;-12.50;99.90;;;;;;5017510;28;20205;-74
2022/07/26 04:18:27;;;;;;;10.33;4.67;;;-11.30;99.90;;;;;;5017757;28;20162;-75
2022/07/26 04:20:53;;;;;;;23.30;6.27;;;-14.00;99.90;;;;;;5017633;28;20162;-74
2022/07/26 04:23:19;;;;;;;17.27;4.53;;;-13.60;99.90;;;;;;5017787;28;20169;-75
2022/07/26 04:25:45;;;;;;;12.03;4.97;;;-12.00;99.90;;;;;;5017353;28;20200;-74
2022/07/26 04:28:11;;;;;;;15.40;4.20;;;-12.30;99.90;;;;;;5017458;28;20222;-75
2022/07/26 04:30:38;;;;;;;10.73;4.30;;;-13.10;99.90;;;;;;5017577;28;20166;-74
2022/07/26 04:33:04;;;;;;;11.57;4.47;;;-13.40;99.90;;;;;;5017459;28;20604;-74
2022/07/26 04:35:31;;;;;;;15.63;4.13;;;-15.60;99.90;;;;;;5017429;28;20569;-74
2022/07/26 04:37:57;;;;;;;15.50;3.90;;;-12.50;99.90;;;;;;5017358;28;20593;-75
2022/07/26 04:40:24;;;;;;;17.57;5.63;;;-14.80;99.90;;;;;;5016899;28;20565;-74
2022/07/26 04:42:50;;;;;;;14.87;5.77;;;-11.50;99.90;;;;;;5017228;28;20169;-74
2022/07/26 04:45:17;;;;;;;17.97;5.30;;;-12.30;99.90;;;;;;5017120;28;20181;-76
2022/07/26 04:47:44;;;;;;;15.83;4.87;;;-8.80;99.90;;;;;;5017149;28;20596;-74
2022/07/26 04:50:11;;;;;;;12.57;4.77;;;-9.90;99.90;;;;;;5016990;28;20201;-74
2022/07/26 04:52:37;;;;;;;19.73;5.30;;;-11.90;99.90;;;;;;5017083;28;20204;-75
2022/07/26 04:55:05;;;;;;;13.87;3.77;;;-10.20;99.90;;;;;;5016805;28;20223;-76
2022/07/26 04:57:31;;;;;;;14.63;4.13;;;-11.40;99.90;;;;;;5017114;28;20180;-75
2022/07/26 04:59:57;;;;;;;12.77;4.20;;;-11.30;99.90;;;;;;5017038;28;20165;-76
2022/07/26 05:02:22;;;;;;;9.87;4.10;;;-11.90;99.90;;;;;;5016923;28;20183;-74
2022/07/26 05:04:48;;;;;;;18.73;5.60;;;-13.70;99.90;;;;;;5017099;28;20588;-77
2022/07/26 05:07:14;;;;;;;14.90;6.27;;;-13.70;99.90;;;;;;5017101;28;20165;-74
2022/07/26 05:09:40;;;;;;;14.83;3.73;;;-14.50;99.90;;;;;;5016787;28;20170;-75
2022/07/26 05:12:06;;;;;;;11.67;4.93;;;-11.70;99.90;;;;;;5016700;28;20592;-75
2022/07/26 05:14:32;;;;;;;19.73;5.50;;;-13.60;99.90;;;;;;5016738;28;20197;-75
2022/07/26 05:17:00;;;;;;;15.70;5.90;;;-13.80;99.90;;;;;;5019282;28;20209;-75
2022/07/26 05:19:26;;;;;;;14.30;4.57;;;-13.00;99.90;;;;;;5029743;28;20241;-75
2022/07/26 05:21:52;;;;;;;10.50;4.53;;;-13.90;99.90;;;;;;5023287;28;20596;-75
2022/07/26 05:24:19;;;;;;;21.77;5.17;;;-13.50;99.90;;;;;;5006917;28;20205;-75
2022/07/26 05:26:46;;;;;;;8.73;4.73;;;-14.00;99.90;;;;;;5013584;28;20582;-75
2022/07/26 05:29:12;;;;;;;11.10;3.73;;;-13.50;99.90;;;;;;5016517;28;20211;-73
2022/07/26 05:31:38;;;;;;;11.23;4.17;;;-12.60;99.90;;;;;;5016229;28;20240;-75
2022/07/26 05:34:04;;;;;;;12.53;4.23;;;-12.80;99.90;;;;;;5016207;28;20169;-73
2022/07/26 05:36:29;;;;;;;16.67;4.53;;;-13.50;99.90;;;;;;5016220;28;20176;-75
2022/07/26 05:38:55;;;;;;;16.60;5.27;;;-13.40;99.90;;;;;;5016084;28;20485;-75
2022/07/26 05:41:21;;;;;;;12.97;4.43;;;-14.80;99.90;;;;;;5015763;28;20208;-76
2022/07/26 05:43:47;;;;;;;21.20;6.20;;;-15.20;99.90;;;;;;5013954;28;20188;-73
2022/07/26 05:46:14;;;;;;;12.30;5.60;;;-14.00;99.90;;;;;;5015358;28;20177;-73
2022/07/26 05:48:41;;;;;;;19.10;4.57;;;-14.90;99.90;;;;;;5016158;28;20185;-73
2022/07/26 05:51:08;;;;;;;9.77;4.00;;;-15.00;99.90;;;;;;5015578;28;20594;-75
2022/07/26 05:53:34;;;;;;;13.87;4.53;;;-14.30;99.90;;;;;;5015929;28;20224;-74
2022/07/26 05:56:00;;;;;;;9.00;4.33;;;-11.90;99.90;;;;;;5015860;28;20253;-75
2022/07/26 05:58:26;;;;;;;16.13;5.87;;;-13.20;99.90;;;;;;5015777;28;20585;-73
2022/07/26 06:00:51;;;;;;;11.17;4.23;;;-11.90;99.90;;;;;;5015473;28;20523;-72
2022/07/26 06:03:24;;;;;;;10.90;5.47;;;-12.50;99.90;;;;;;5014851;28;20211;-72
2022/07/26 06:05:52;;;;;;;17.50;4.97;;;-11.30;99.90;;;;;;5016254;28;20240;-73
2022/07/26 06:08:19;;;;;;;13.87;4.87;;;-11.80;99.90;;;;;;5014546;28;20165;-72
2022/07/26 06:10:47;;;;;;;10.37;4.17;;;-12.80;99.90;;;;;;5015125;28;20161;-73
2022/07/26 06:13:13;;;;;;;16.73;3.80;;;-15.30;99.90;;;;;;5016002;28;20193;-73
2022/07/26 06:15:40;;;;;;;10.30;3.60;;;-16.10;99.90;;;;;;5016165;28;20219;-72
2022/07/26 06:18:06;;;;;;;10.43;3.87;;;-12.40;99.90;;;;;;5016163;28;20192;-73
2022/07/26 06:20:32;;;;;;;10.57;3.27;;;-12.10;99.90;;;;;;5016178;28;20157;-71
2022/07/26 06:22:59;;;;;;;7.30;3.73;;;-12.10;99.90;;;;;;5015993;28;20166;-72
2022/07/26 06:25:25;;;;;;;6.50;3.87;;;-12.90;99.90;;;;;;5016546;28;20170;-72
2022/07/26 06:27:51;;;;;;;17.13;4.60;;;-12.60;99.90;;;;;;5016558;28;20253;-72
2022/07/26 06:30:17;;;;;;;8.63;3.17;;;-13.00;99.90;;;;;;5019821;28;20455;-73
2022/07/26 06:32:43;;;;;;;13.67;3.63;;;-13.90;99.90;;;;;;5019648;28;20207;-73
2022/07/26 06:35:13;;;;;;;9.53;3.60;;;-12.90;99.90;;;;;;5018576;28;20180;-73
2022/07/26 06:37:40;;;;;;;11.53;4.03;;;-13.30;99.90;;;;;;5019372;28;20192;-71
2022/07/26 06:40:07;;;;;;;7.33;3.37;;;-13.70;99.90;;;;;;5019695;28;20721;-73
2022/07/26 06:42:33;;;;;;;11.07;4.73;;;-13.50;99.90;;;;;;5018417;28;20268;-73
2022/07/26 06:45:00;;;;;;;10.67;3.13;;;-12.00;99.90;;;;;;5019894;28;20189;-72
2022/07/26 06:47:26;;;;;;;12.50;3.00;;;-12.60;99.90;;;;;;5019338;28;20189;-72
2022/07/26 06:49:52;;;;;;;8.63;3.40;;;-11.20;99.90;;;;;;5019480;28;20193;-72
2022/07/26 06:52:19;;;;;;;5.73;2.50;;;-9.70;99.90;;;;;;5019365;28;20299;-72
2022/07/26 06:54:45;;;;;;;9.43;3.60;;;-13.50;99.90;;;;;;5019375;28;20176;-72
2022/07/26 06:57:10;;;;;;;13.17;4.03;;;-15.60;99.90;;;;;;5019328;28;20560;-72
2022/07/26 06:59:36;;;;;;;12.23;4.93;;;-11.60;99.90;;;;;;5019190;28;20170;-72
2022/07/26 07:02:03;;;;;;;7.07;3.33;;;-13.70;99.90;;;;;;5019291;28;20227;-73
2022/07/26 07:04:30;;;;;;;9.10;3.17;;;-12.40;99.90;;;;;;5018882;28;20189;-72
2022/07/26 07:07:01;;;;;;;10.73;3.67;;;-11.50;99.90;;;;;;5019225;28;20187;-73
2022/07/26 07:09:27;;;;;;;8.13;3.63;;;-12.40;99.90;;;;;;5019041;28;20165;-74
2022/07/26 07:11:53;;;;;;;11.33;3.60;;;-11.70;99.90;;;;;;5019076;28;20197;-72
2022/07/26 07:14:19;;;;;;;12.00;3.23;;;-11.70;99.90;;;;;;5018789;28;20174;-71
2022/07/26 07:16:45;;;;;;;7.60;4.73;;;-12.00;99.90;;;;;;5018939;28;20592;-71
2022/07/26 07:19:10;;;;;;;7.80;3.37;;;-13.70;99.90;;;;;;5018729;28;20565;-73
2022/07/26 07:21:36;;;;;;;8.73;3.57;;;-13.00;99.90;;;;;;5019089;28;20561;-72
2022/07/26 07:24:02;;;;;;;9.73;4.30;;;-13.90;99.90;;;;;;5018885;28;20176;-72
2022/07/26 07:26:28;;;;;;;6.83;3.20;;;-12.60;99.90;;;;;;5018956;28;20625;-73
2022/07/26 07:28:54;;;;;;;10.40;3.13;;;-12.20;99.90;;;;;;5018750;28;20170;-73
2022/07/26 07:31:19;;;;;;;3.47;2.17;;;-9.70;99.90;;;;;;5018714;28;20207;-72
2022/07/26 07:33:45;;;;;;;7.10;2.70;;;-14.30;99.90;;;;;;5019939;28;20165;-72
2022/07/26 07:36:11;;;;;;;6.93;3.30;;;-10.90;99.90;;;;;;5019612;28;20176;-72
2022/07/26 07:38:36;;;;;;;10.40;3.27;;;-10.60;99.90;;;;;;5018080;28;20174;-74
2022/07/26 07:41:02;;;;;;;9.83;3.30;;;-10.10;99.90;;;;;;5018289;28;20177;-72
2022/07/26 07:43:28;;;;;;;6.10;2.70;;;-11.20;99.90;;;;;;5018384;28;20166;-72
2022/07/26 07:45:53;;;;;;;6.80;3.67;;;-11.40;99.90;;;;;;5018370;28;20166;-71
2022/07/26 07:48:19;;;;;;;7.13;2.73;;;-10.30;99.90;;;;;;5017894;28;20189;-72
2022/07/26 07:50:45;;;;;;;7.73;2.53;;;-9.70;99.90;;;;;;5017173;28;20169;-72
2022/07/26 07:53:11;;;;;;;9.13;3.60;;;-9.60;99.90;;;;;;5018315;28;20193;-72
2022/07/26 07:55:37;;;;;;;8.10;2.70;;;-9.10;99.90;;;;;;5018211;28;20172;-73
2022/07/26 07:58:02;;;;;;;9.37;2.60;;;-11.50;99.90;;;;;;5018307;28;20184;-72
2022/07/26 08:00:28;;;;;;;5.97;3.77;;;-10.20;99.90;;;;;;5017822;28;20174;-73
2022/07/26 08:02:54;;;;;;;7.97;2.77;;;-10.10;99.90;;;;;;5017879;28;20252;-73
2022/07/26 08:05:20;;;;;;;13.73;3.63;;;-8.00;99.90;;;;;;5017924;28;20169;-72
2022/07/26 08:07:46;;;;;;;7.83;3.00;;;-7.10;99.90;;;;;;5018252;28;20188;-72
2022/07/26 08:10:11;;;;;;;11.07;3.20;;;-7.40;99.90;;;;;;5017737;28;20178;-73
2022/07/26 08:12:37;;;;;;;7.07;3.17;;;-8.00;99.90;;;;;;5017822;28;20201;-72
2022/07/26 08:15:04;;;;;;;9.63;2.97;;;-7.60;99.90;;;;;;5017845;28;20220;-73
2022/07/26 08:17:30;;;;;;;8.03;4.00;;;-9.30;99.90;;;;;;5017571;28;20170;-72
2022/07/26 08:19:56;;;;;;;8.17;3.67;;;-10.00;99.90;;;;;;5017751;28;20192;-73
2022/07/26 08:22:21;;;;;;;5.10;2.87;;;19.30;99.90;;;;;;5017722;28;20178;-72
2022/07/26 08:24:47;;;;;;;7.33;2.77;;;19.20;99.90;;;;;;5017912;28;20205;-72
2022/07/26 08:27:13;;;;;;;7.07;3.20;;;19.10;99.90;;;;;;5018124;28;20546;-72
2022/07/26 08:29:39;;;;;;;14.33;4.80;;;19.00;99.90;;;;;;5018237;28;20177;-73
2022/07/26 08:32:05;;;;;;;13.13;3.40;;;19.10;99.90;;;;;;5018856;28;20522;-72
2022/07/26 08:34:31;;;;;;;7.40;3.30;;;19.30;99.90;;;;;;5017832;28;20511;-72
2022/07/26 08:36:57;;;;;;;6.07;3.10;;;19.30;99.90;;;;;;5017558;28;20170;-72
2022/07/26 08:39:23;;;;;;;9.47;4.30;;;19.50;99.90;;;;;;5017574;28;20257;-73
2022/07/26 08:41:49;;;;;;;5.87;3.73;;;19.50;99.90;;;;;;5017472;28;20181;-72
2022/07/26 08:44:14;;;;;;;6.67;3.97;;;19.80;99.90;;;;;;5017324;28;20213;-72
2022/07/26 08:46:41;;;;;;;8.03;3.07;;;19.60;99.90;;;;;;5017056;28;20177;-73
2022/07/26 08:49:09;;;;;;;7.20;2.60;;;19.50;99.90;;;;;;5017274;28;20197;-72
2022/07/26 08:51:42;;;;;;;8.13;3.23;;;19.60;99.90;;;;;;5016755;28;20265;-72
2022/07/26 08:54:10;;;;;;;8.47;3.57;;;19.50;99.90;;;;;;5017294;28;20572;-71
2022/07/26 08:56:41;;;;;;;7.03;2.77;;;19.40;99.90;;;;;;5017017;28;20176;-72
2022/07/26 08:59:15;;;;;;;6.37;2.97;;;19.20;99.90;;;;;;5017074;28;20173;-71
2022/07/26 09:01:50;;;;;;;5.33;3.00;;;19.40;99.90;;;;;;5016724;28;20267;-73
2022/07/26 09:04:22;;;;;;;8.93;4.23;;;19.50;99.90;;;;;;5017130;28;20177;-72
2022/07/26 09:07:00;;;;;;;6.80;2.87;;;19.40;99.90;;;;;;5016877;28;20177;-72
2022/07/26 09:09:26;;;;;;;7.30;2.87;;;-4.80;99.90;;;;;;5016947;28;20173;-73
2022/07/26 09:11:54;;;;;;;7.17;3.10;;;19.60;99.90;;;;;;5016683;28;20204;-72
2022/07/26 09:14:20;;;;;;;3.13;2.10;;;20.00;99.90;;;;;;5016799;28;20672;-72
2022/07/26 09:16:58;;;;;;;6.43;2.57;;;19.90;99.90;;;;;;5016222;28;20181;-73
2022/07/26 09:19:24;;;;;;;7.63;2.73;;;19.80;99.90;;;;;;5016697;28;20272;-73
2022/07/26 09:21:54;;;;;;;8.17;2.63;;;19.70;99.90;;;;;;5016543;28;20178;-72
2022/07/26 09:24:40;;;;;;;7.60;3.17;;;19.80;99.90;;;;;;5016843;28;20271;-72
2022/07/26 09:27:09;;;;;;;8.33;3.70;;;19.70;99.90;;;;;;5016750;28;20264;-73
2022/07/26 09:29:48;;;;;;;11.30;3.70;;;18.00;99.90;;;;;;5016437;28;20181;-73
2022/07/26 09:32:25;;;;;;;7.57;2.33;;;-3.60;99.90;;;;;;5015537;28;20608;-73
2022/07/26 09:34:55;;;;;;;7.73;2.87;;;-2.00;99.90;;;;;;5019591;28;20169;-72
2022/07/26 09:37:38;;;;;;;4.93;2.47;;;-4.80;99.90;;;;;;5018412;28;20169;-72
2022/07/26 09:40:07;;;;;;;8.13;2.93;;;-1.10;99.90;;;;;;5016882;28;20249;-71
2022/07/26 09:42:33;;;;;;;7.53;3.27;;;-0.90;99.90;;;;;;5016378;28;20512;-72
2022/07/26 09:45:00;;;;;;;6.07;2.17;;;-0.60;99.90;;;;;;5016486;28;20519;-72
2022/07/26 09:47:37;;;;;;;3.70;1.77;;;-3.30;99.90;;;;;;5016315;28;20219;-71
2022/07/26 09:50:19;;;;;;;4.73;1.80;;;-1.70;99.90;;;;;;5016415;28;20177;-72
2022/07/26 09:53:07;;;;;;;2.73;1.23;;;-0.80;99.90;;;;;;5016153;28;20213;-72
2022/07/26 09:55:36;;;;;;;8.10;2.00;;;-1.30;99.90;;;;;;5016231;28;20257;-73
2022/07/26 09:58:05;;;;;;;6.13;2.23;;;-0.80;99.90;;;;;;5016040;28;20197;-73
2022/07/26 10:00:32;;;;;;;2.87;1.87;;;-1.60;99.90;;;;;;5015950;28;20169;-73
2022/07/26 10:02:58;;;;;;;4.67;1.83;;;-0.90;99.90;;;;;;5015455;28;20169;-72
2022/07/26 10:05:25;;;;;;;3.10;1.53;;;-0.80;99.90;;;;;;5016145;28;20192;-73
2022/07/26 10:07:51;;;;;;;4.27;1.60;;;-2.70;99.90;;;;;;5015907;28;20196;-73
2022/07/26 10:10:22;;;;;;;3.07;1.70;;;-1.50;99.90;;;;;;5016089;28;20257;-72
2022/07/26 10:12:51;;;;;;;2.43;1.70;;;0.50;99.90;;;;;;5015838;28;20597;-72
2022/07/26 10:15:39;;;;;;;2.03;1.47;;;-0.50;99.90;;;;;;5015693;28;20193;-72
2022/07/26 10:18:25;;;;;;;4.97;2.33;;;3.30;99.90;;;;;;5015787;28;20192;-71
2022/07/26 10:20:51;;;;;;;6.30;3.20;;;1.00;99.90;;;;;;5013689;28;20257;-73
2022/07/26 10:23:57;;;;;;;2.90;1.90;;;-0.60;99.80;;;;;;5016177;28;20535;-73
2022/07/26 10:26:31;;;;;;;2.60;2.03;;;1.70;99.90;;;;;;5014313;28;20189;-73
2022/07/26 10:29:15;;;;;;;2.50;1.57;;;2.10;99.90;;;;;;5015614;28;20177;-73
2022/07/26 10:32:07;;;;;;;4.73;2.13;;;2.90;99.90;;;;;;5016127;28;20205;-72
2022/07/26 10:34:34;;;;;;;1.63;1.30;;;0.60;99.40;;;;;;5013903;28;20465;-73
2022/07/26 10:37:04;;;;;;;2.53;1.57;;;-1.40;97.40;;;;;;5015987;28;20471;-73
2022/07/26 10:39:30;;;;;;;5.50;2.00;;;-5.60;95.60;;;;;;5015754;28;20265;-73
2022/07/26 10:41:57;;;;;;;3.80;1.40;;;-16.10;91.20;;;;;;5015652;28;20248;-74
2022/07/26 10:44:31;;;;;;;1.77;1.33;;;22.70;99.90;;;;;;5015782;28;20268;-72
2022/07/26 10:47:17;;;;;;;2.50;2.00;;;22.90;99.90;;;;;;5016410;28;20228;-72
2022/07/26 10:49:56;;;;;;;2.07;1.53;;;22.90;99.90;;;;;;5015809;28;20730;-72
2022/07/26 10:52:27;;;;;;;4.47;1.63;;;22.60;99.90;;;;;;5016173;28;20512;-72
2022/07/26 10:54:58;;;;;;;1.63;1.53;;;22.20;99.90;;;;;;5015827;28;20165;-73
2022/07/26 10:57:24;;;;;;;3.03;1.50;;;22.00;99.90;;;;;;5015575;28;20169;-73
2022/07/26 10:59:50;;;;;;;1.97;1.17;;;21.90;99.90;;;;;;5015787;28;20177;-73
2022/07/26 11:02:18;;;;;;;2.00;1.27;;;21.70;99.90;;;;;;5015769;28;20184;-73
2022/07/26 11:04:43;;;;;;;2.63;1.13;;;21.70;99.90;;;;;;5015356;28;20239;-73
2022/07/26 11:07:11;;;;;;;3.70;1.57;;;21.70;99.90;;;;;;5015753;28;20178;-72
2022/07/26 11:09:37;;;;;;;2.20;1.43;;;21.70;99.90;;;;;;5015821;28;20170;-72
2022/07/26 11:12:20;;;;;;;6.90;1.93;;;21.30;99.90;;;;;;5015973;28;20189;-73
2022/07/26 11:14:46;;;;;;;3.17;1.73;;;21.90;99.90;;;;;;5017469;28;20616;-72
2022/07/26 11:17:30;;;;;;;5.37;1.60;;;21.70;99.90;;;;;;5019512;28;20182;-72
2022/07/26 11:19:56;;;;;;;3.30;1.97;;;21.30;99.90;;;;;;5019196;28;20165;-72
2022/07/26 11:22:32;;;;;;;9.47;2.20;;;21.10;99.90;;;;;;5019785;28;20181;-73
2022/07/26 11:24:58;;;;;;;4.93;2.50;;;21.60;99.90;;;;;;5019990;28;20173;-73
2022/07/26 11:27:24;;;;;;;3.10;1.40;;;21.60;99.90;;;;;;5021222;28;20169;-71
2022/07/26 11:29:49;;;;;;;5.27;1.93;;;21.50;99.90;;;;;;5019794;28;20228;-73
2022/07/26 11:32:21;;;;;;;2.30;1.20;;;20.80;99.90;;;;;;5019379;28;20280;-73
2022/07/26 11:34:59;;;;;;;4.43;1.50;;;20.30;99.90;;;;;;5019165;28;20170;-73
2022/07/26 11:37:25;;;;;;;2.70;0.93;;;21.20;99.90;;;;;;5018822;28;20268;-73
2022/07/26 11:39:51;;;;;;;3.80;1.90;;;21.80;99.90;;;;;;5018734;28;20187;-72
2022/07/26 11:42:20;;;;;;;2.87;1.67;;;21.80;99.90;;;;;;5018491;28;20252;-72
2022/07/26 11:44:47;;;;;;;3.50;1.00;;;22.90;99.90;;;;;;5018518;28;20193;-72
2022/07/26 11:47:19;;;;;;;4.23;1.17;;;22.80;99.90;;;;;;5018494;28;20197;-71
2022/07/26 11:49:45;;;;;;;4.97;1.73;;;22.90;99.90;;;;;;5018285;28;20173;-72
2022/07/26 11:52:11;;;;;;;4.27;1.80;;;23.00;99.90;;;;;;5018572;28;20209;-72
2022/07/26 11:54:45;;;;;;;3.37;1.40;;;23.00;99.90;;;;;;5016832;28;20187;-72
2022/07/26 11:57:11;;;;;;;5.03;2.07;;;22.90;99.90;;;;;;5018438;28;20169;-73
2022/07/26 11:59:38;;;;;;;1.50;1.07;;;22.90;99.90;;;;;;5017370;28;20257;-73
2022/07/26 12:02:06;;;;;;;2.37;1.43;;;22.80;99.90;;;;;;5018217;28;20245;-71
2022/07/26 12:04:36;;;;;;;1.90;0.90;;;22.80;99.90;;;;;;5018080;28;20531;-71
2022/07/26 12:07:18;;;;;;;2.73;1.93;;;22.80;99.90;;;;;;5018145;28;20170;-72
2022/07/26 12:09:48;;;;;;;1.30;0.90;;;22.90;99.90;;;;;;5017731;28;20223;-73
2022/07/26 12:12:28;;;;;;;1.00;0.90;;;21.70;99.90;;;;;;5018299;28;20212;-73
2022/07/26 12:14:59;;;;;;;4.87;1.10;;;21.90;99.90;;;;;;5017678;28;20192;-73
2022/07/26 12:17:25;;;;;;;1.40;0.83;;;22.00;99.90;;;;;;5018119;28;20170;-73
2022/07/26 12:19:51;;;;;;;1.80;1.17;;;20.10;99.90;;;;;;5018223;28;20532;-73
2022/07/26 12:22:19;;;;;;;3.83;1.10;;;23.50;99.90;;;;;;5018149;28;20208;-72
2022/07/26 12:24:51;;;;;;;2.03;1.30;;;23.60;99.90;;;;;;5017542;28;20181;-72
2022/07/26 12:27:26;;;;;;;1.17;1.03;;;23.60;99.90;;;;;;5017160;28;20235;-73
2022/07/26 12:30:12;;;;;;;3.67;1.00;;;23.60;99.90;;;;;;5016513;28;20184;-73
2022/07/26 12:32:43;;;;;;;5.33;1.37;;;23.40;99.90;;;;;;5017577;28;20193;-72
2022/07/26 12:35:12;;;;;;;2.43;1.37;;;23.30;99.90;;;;;;5017656;28;20635;-73
2022/07/26 12:37:44;;;;;;;2.20;1.27;;;23.00;99.90;;;;;;5017487;28;20585;-71
2022/07/26 12:40:18;;;;;;;1.77;1.67;;;22.70;99.90;;;;;;5017200;28;20252;-71
2022/07/26 12:42:50;;;;;;;2.40;1.27;;;22.50;99.90;;;;;;5017424;28;20182;-72
2022/07/26 12:45:22;;;;;;;2.50;1.83;;;22.50;99.90;;;;;;5017372;28;20181;-72
2022/07/26 12:47:50;;;;;;;1.20;1.10;;;22.60;99.90;;;;;;5017208;28;20213;-71